Time;durP1;ratioP1;P1;durP2;ratioP2;P2;SDS_P1;SDS_P2;PMS_P1;PMS_P2;Temp;Humidity;BMP_temperature;BMP_pressure;BME280_temperature;BME280_humidity;BME280_pressure;Samples;Min_cycle;Max_cycle;Signal;HPM_P1;HPM_P2
2022/09/17 00:01:36;;;;;;;6.13;4.20;;;;;;;19.38;92.78;94038.94;5034896;28;20450;-90
2022/09/17 00:04:04;;;;;;;3.77;3.47;;;;;;;19.41;92.88;94041.19;5034225;28;20481;-91
2022/09/17 00:06:34;;;;;;;6.90;3.70;;;;;;;19.43;93.23;94033.81;5034358;28;20484;-90
2022/09/17 00:09:02;;;;;;;5.87;4.00;;;;;;;19.43;93.06;94039.13;5034676;28;20446;-91
2022/09/17 00:11:32;;;;;;;6.20;4.00;;;;;;;19.43;92.69;94041.78;5034332;28;20443;-91
2022/09/17 00:14:01;;;;;;;6.60;3.73;;;;;;;19.42;92.92;94040.16;5034623;28;20451;-91
2022/09/17 00:16:31;;;;;;;3.73;3.43;;;;;;;19.45;92.64;94029.09;5034957;28;20453;-91
2022/09/17 00:18:58;;;;;;;7.80;4.90;;;;;;;19.48;92.60;94023.34;5034402;28;20446;-93
2022/09/17 00:21:26;;;;;;;3.90;3.37;;;;;;;19.40;93.00;94027.06;5032041;28;20446;-91
2022/09/17 00:23:56;;;;;;;6.53;4.40;;;;;;;19.22;92.82;94015.38;5034619;28;20463;-90
2022/09/17 00:26:23;;;;;;;5.90;4.20;;;;;;;19.06;93.42;94020.06;5033515;28;20489;-89
2022/09/17 00:28:51;;;;;;;8.93;4.63;;;;;;;19.03;94.19;94022.31;5033096;28;20461;-91
2022/09/17 00:31:18;;;;;;;5.60;4.50;;;;;;;19.04;94.29;94011.47;5033738;28;20892;-91
2022/09/17 00:33:45;;;;;;;4.33;3.43;;;;;;;19.11;94.38;94009.66;5033820;28;20462;-92
2022/09/17 00:36:12;;;;;;;5.00;4.23;;;;;;;19.16;94.37;94009.84;5034041;28;20455;-91
2022/09/17 00:38:39;;;;;;;8.73;4.77;;;;;;;19.22;93.91;94010.06;5033976;28;20454;-91
2022/09/17 00:41:08;;;;;;;5.23;4.17;;;;;;;19.27;94.44;94007.59;5033912;28;20504;-90
2022/09/17 00:43:39;;;;;;;5.07;3.77;;;;;;;19.30;94.43;94004.53;5034223;28;20441;-92
2022/09/17 00:46:17;;;;;;;5.27;3.80;;;;;;;19.36;94.00;94003.69;5033797;28;20489;-92
2022/09/17 00:48:45;;;;;;;3.90;3.43;;;;;;;19.37;93.10;94005.34;5034512;28;20435;-93
2022/09/17 00:51:14;;;;;;;5.10;4.00;;;;;;;19.35;92.94;94018.84;5015056;28;20852;-90
2022/09/17 00:53:42;;;;;;;4.57;4.20;;;;;;;19.39;93.34;94029.91;5033934;28;20553;-91
2022/09/17 00:56:18;;;;;;;10.40;4.33;;;;;;;19.33;92.88;94030.72;5033662;28;20438;-89
2022/09/17 00:58:47;;;;;;;6.00;4.20;;;;;;;19.25;93.33;94023.75;5031879;28;20474;-92
2022/09/17 01:01:14;;;;;;;7.40;3.70;;;;;;;19.24;94.00;94046.06;5033973;28;20545;-91
2022/09/17 01:03:41;;;;;;;4.13;3.83;;;;;;;19.19;93.98;94041.38;5033902;28;20451;-92
2022/09/17 01:06:34;;;;;;;5.90;3.87;;;;;;;19.07;94.58;94031.50;4992312;28;20468;-92
2022/09/17 01:09:15;;;;;;;6.80;4.23;;;;;;;19.12;95.30;94045.03;4992516;28;20455;-92
2022/09/17 01:11:57;;;;;;;4.93;3.80;;;;;;;18.99;94.86;94034.38;4991889;28;20444;-90
2022/09/17 01:14:38;;;;;;;7.00;4.83;;;;;;;18.99;95.39;94023.75;4991835;28;20475;-91
2022/09/17 01:17:15;;;;;;;5.60;3.80;;;;;;;18.90;96.03;94024.97;4991887;28;20491;-91
2022/09/17 01:20:16;;;;;;;10.50;4.10;;;;;;;18.25;99.65;94008.59;4992002;28;20448;-90
2022/09/17 01:22:56;;;;;;;5.17;3.90;;;;;;;18.35;99.40;94017.00;4991947;28;20444;-92
2022/09/17 01:25:30;;;;;;;6.10;3.70;;;;;;;18.40;99.71;94019.88;5025305;28;20446;-91
2022/09/17 01:28:18;;;;;;;8.60;4.20;;;;;;;18.50;99.87;94030.13;5033051;28;20477;-90
2022/09/17 01:31:03;;;;;;;6.50;4.50;;;;;;;18.65;100.00;94022.84;5033365;28;20447;-89
2022/09/17 01:33:39;;;;;;;8.03;4.20;;;;;;;18.78;99.58;94030.84;5033340;28;20453;-91
2022/09/17 01:36:26;;;;;;;13.53;4.43;;;;;;;18.69;98.90;93999.34;5033477;28;20881;-91
2022/09/17 01:38:58;;;;;;;4.87;4.40;;;;;;;18.75;99.73;94027.78;4993787;28;20455;-92
2022/09/17 01:41:33;;;;;;;8.60;3.97;;;;;;;18.67;98.65;94022.66;4995929;28;20436;-91
2022/09/17 01:44:06;;;;;;;6.17;4.33;;;;;;;18.67;99.30;94018.16;4963180;28;20471;-92
2022/09/17 01:46:39;;;;;;;7.07;3.83;;;;;;;18.78;98.80;94028.19;4995558;28;20484;-89
2022/09/17 01:49:08;;;;;;;4.97;4.50;;;;;;;18.74;98.71;94021.66;4995915;28;20495;-91
2022/09/17 01:51:39;;;;;;;5.00;4.60;;;;;;;18.81;98.62;94022.50;4995818;28;20880;-89
2022/09/17 01:54:11;;;;;;;5.60;4.47;;;;;;;18.64;98.99;93993.81;4995738;28;20456;-91
2022/09/17 01:56:42;;;;;;;6.47;4.43;;;;;;;18.74;99.43;93986.28;4995761;28;20447;-91
2022/09/17 01:59:18;;;;;;;4.60;3.70;;;;;;;18.76;98.62;93944.34;4995344;28;20455;-88
2022/09/17 02:01:51;;;;;;;6.37;5.00;;;;;;;18.56;99.66;93944.31;4995177;28;20451;-91
2022/09/17 02:04:23;;;;;;;13.80;6.10;;;;;;;18.47;100.00;93929.56;4995011;28;20444;-90
2022/09/17 02:06:57;;;;;;;7.53;4.70;;;;;;;18.54;100.00;93946.38;4995547;28;20867;-92
2022/09/17 02:09:30;;;;;;;8.03;5.10;;;;;;;18.37;100.00;93948.56;4995405;28;20535;-91
2022/09/17 02:12:02;;;;;;;8.53;4.90;;;;;;;18.18;100.00;93951.97;4995151;28;20443;-90
2022/09/17 02:14:34;;;;;;;9.30;5.60;;;;;;;17.94;100.00;93958.66;4995249;28;20444;-92
2022/09/17 02:17:09;;;;;;;7.00;5.20;;;;;;;18.03;100.00;93961.94;5031375;28;20458;-91
2022/09/17 02:19:38;;;;;;;10.67;6.10;;;;;;;18.11;100.00;93936.03;5037163;28;20453;-93
2022/09/17 02:22:14;;;;;;;6.87;5.43;;;;;;;18.34;100.00;93956.13;5036585;28;21028;-88
2022/09/17 02:24:47;;;;;;;13.23;5.33;;;;;;;18.47;100.00;93929.56;5038336;28;20979;-90
2022/09/17 02:27:24;;;;;;;6.93;5.90;;;;;;;18.61;100.00;93914.47;5036012;28;20488;-91
2022/09/17 02:29:51;;;;;;;10.43;6.57;;;;;;;18.70;100.00;93907.97;5036256;28;20476;-90
2022/09/17 02:32:19;;;;;;;13.40;7.77;;;;;;;18.65;100.00;93874.03;5036341;28;20454;-87
2022/09/17 02:34:47;;;;;;;10.90;7.00;;;;;;;18.38;100.00;93865.19;5036293;28;20550;-92
2022/09/17 02:37:14;;;;;;;8.60;7.10;;;;;;;18.04;100.00;93865.34;5036074;28;20990;-91
2022/09/17 02:39:42;;;;;;;9.37;5.63;;;;;;;17.96;100.00;93826.53;5036007;28;20454;-90
2022/09/17 02:42:21;;;;;;;9.80;6.73;;;;;;;17.58;100.00;93844.75;5036401;28;20458;-91
2022/09/17 02:44:58;;;;;;;9.10;6.77;;;;;;;17.61;100.00;93831.06;5036513;28;20450;-90
2022/09/17 02:47:56;;;;;;;8.37;5.37;;;;;;;17.84;100.00;93854.66;5035875;28;20481;-90
2022/09/17 02:50:44;;;;;;;13.53;6.70;;;;;;;18.08;100.00;93891.28;5034918;28;20736;-91
2022/09/17 02:53:31;;;;;;;8.20;6.40;;;;;;;18.13;100.00;93877.41;5035960;28;20447;-83
2022/09/17 02:56:09;;;;;;;5.17;4.53;;;;;;;18.78;100.00;93892.63;5035526;28;20450;-89
2022/09/17 02:58:45;;;;;;;12.50;5.70;;;;;;;19.70;100.00;93904.22;5035589;28;20820;-88
2022/09/17 03:01:20;;;;;;;8.70;5.43;;;;;;;19.58;99.49;93917.31;5035851;28;20430;-87
2022/09/17 03:03:50;;;;;;;6.60;5.90;;;;;;;19.62;97.76;93889.25;5036229;28;20499;-87
2022/09/17 03:06:17;;;;;;;8.03;5.80;;;;;;;19.57;97.78;93915.69;5036274;28;20450;-87
2022/09/17 03:08:46;;;;;;;9.37;6.30;;;;;;;19.55;98.10;93879.66;5036155;28;20453;-89
2022/09/17 03:11:13;;;;;;;17.40;5.83;;;;;;;19.47;99.31;93876.19;5036524;28;20439;-86
2022/09/17 03:14:05;;;;;;;7.73;5.43;;;;;;;19.53;99.39;93874.56;5036034;28;20431;-86
2022/09/17 03:16:31;;;;;;;11.80;6.07;;;;;;;19.58;99.29;93866.75;5035699;28;20454;-86
2022/09/17 03:19:00;;;;;;;12.97;6.03;;;;;;;19.60;98.36;93851.41;5036345;28;20526;-89
2022/09/17 03:21:27;;;;;;;5.57;5.07;;;;;;;19.51;98.42;93831.34;5036275;28;20446;-90
2022/09/17 03:23:54;;;;;;;9.53;5.70;;;;;;;19.42;99.02;93816.66;5036541;28;20457;-91
2022/09/17 03:26:21;;;;;;;7.47;5.80;;;;;;;19.08;100.00;93813.28;5036685;28;20450;-89
2022/09/17 03:28:48;;;;;;;6.77;4.70;;;;;;;18.90;100.00;93831.72;5036501;28;20455;-89
2022/09/17 03:31:14;;;;;;;6.60;5.37;;;;;;;18.88;100.00;93853.19;5036552;28;20454;-88
2022/09/17 03:33:41;;;;;;;7.30;5.10;;;;;;;19.05;100.00;93861.53;5036829;28;20451;-90
2022/09/17 03:36:10;;;;;;;10.63;6.30;;;;;;;19.08;100.00;93852.31;5036413;28;20827;-91
2022/09/17 03:38:37;;;;;;;7.30;4.67;;;;;;;19.19;100.00;93849.03;5039784;28;20460;-89
2022/09/17 03:41:06;;;;;;;11.93;5.80;;;;;;;18.89;100.00;93838.06;5035648;28;20483;-88
2022/09/17 03:43:34;;;;;;;10.73;5.47;;;;;;;18.99;100.00;93843.75;5035723;28;20500;-88
2022/09/17 03:46:16;;;;;;;8.57;6.23;;;;;;;19.07;100.00;93846.19;5035518;28;20542;-87
2022/09/17 03:48:43;;;;;;;5.97;5.20;;;;;;;19.03;100.00;93823.69;5035491;28;20537;-90
2022/09/17 03:51:11;;;;;;;10.53;5.17;;;;;;;19.01;100.00;93825.75;5035687;28;20992;-89
2022/09/17 03:53:38;;;;;;;6.30;4.90;;;;;;;18.90;100.00;93821.06;5035381;28;20455;-89
2022/09/17 03:56:08;;;;;;;5.70;5.13;;;;;;;18.84;99.97;93827.22;5035187;28;20446;-87
2022/09/17 03:58:35;;;;;;;10.00;5.23;;;;;;;18.61;100.00;93824.13;5035453;28;20435;-89
2022/09/17 04:01:03;;;;;;;9.27;6.07;;;;;;;18.47;100.00;93826.78;5035214;28;20446;-90
2022/09/17 04:03:31;;;;;;;6.20;5.00;;;;;;;18.52;100.00;93842.94;5035707;28;20537;-85
2022/09/17 04:05:58;;;;;;;10.60;6.60;;;;;;;19.13;100.00;93840.06;5035198;28;20446;-86
2022/09/17 04:08:26;;;;;;;17.50;6.00;;;;;;;19.17;100.00;93849.25;5034693;28;20502;-88
2022/09/17 04:10:53;;;;;;;7.40;4.53;;;;;;;19.47;100.00;93851.44;5035282;28;20451;-89
2022/09/17 04:13:20;;;;;;;7.60;4.10;;;;;;;19.65;95.68;93854.25;5035252;28;20454;-90
2022/09/17 04:15:47;;;;;;;6.80;4.80;;;;;;;20.18;98.00;93874.47;5035514;28;20457;-88
2022/09/17 04:18:15;;;;;;;7.53;4.97;;;;;;;20.41;91.35;93867.59;5035267;28;20450;-89
2022/09/17 04:20:42;;;;;;;5.57;4.30;;;;;;;20.77;93.55;93867.97;5035147;28;20466;-90
2022/09/17 04:23:10;;;;;;;6.50;4.40;;;;;;;21.13;92.12;93893.94;5034876;28;20461;-92
2022/09/17 04:25:39;;;;;;;10.90;4.60;;;;;;;21.50;90.44;93913.53;5035230;28;20841;-91
2022/09/17 04:28:07;;;;;;;6.70;4.27;;;;;;;21.86;88.42;93931.41;5034665;28;20489;-90
2022/09/17 04:30:34;;;;;;;10.20;4.17;;;;;;;22.16;85.99;93944.88;5035311;28;20807;-91
2022/09/17 04:33:01;;;;;;;7.53;4.70;;;;;;;22.33;87.19;93961.94;5035307;28;20451;-91
2022/09/17 04:35:28;;;;;;;7.33;4.67;;;;;;;22.08;83.10;93951.34;5035200;28;20450;-89
2022/09/17 04:37:55;;;;;;;10.90;5.00;;;;;;;22.08;94.23;93959.34;5035041;28;20450;-89
2022/09/17 04:40:23;;;;;;;6.20;5.40;;;;;;;22.29;95.02;93998.19;5034705;28;20809;-90
2022/09/17 04:42:54;;;;;;;9.30;4.77;;;;;;;22.13;94.15;93942.66;5034906;28;20458;-87
2022/09/17 04:45:21;;;;;;;9.43;5.90;;;;;;;22.37;99.21;93994.38;5034250;28;20434;-88
2022/09/17 04:47:49;;;;;;;9.90;5.60;;;;;;;22.40;88.88;93991.25;5034760;28;20474;-92
2022/09/17 04:50:17;;;;;;;6.80;4.63;;;;;;;22.63;93.10;94019.97;5035225;28;21029;-90
2022/09/17 04:52:44;;;;;;;10.57;4.87;;;;;;;22.95;90.46;94012.59;5034918;28;20450;-90
2022/09/17 04:55:12;;;;;;;9.50;3.90;;;;;;;22.99;86.63;94032.50;5034920;28;20469;-91
2022/09/17 04:57:39;;;;;;;7.23;4.40;;;;;;;23.06;84.42;94034.03;5034945;28;20461;-90
2022/09/17 05:00:10;;;;;;;9.90;4.57;;;;;;;22.75;90.07;94016.31;5034234;28;20966;-88
2022/09/17 05:02:37;;;;;;;14.73;4.50;;;;;;;22.96;89.92;94039.09;5035149;28;20484;-90
2022/09/17 05:05:04;;;;;;;4.83;4.43;;;;;;;23.20;87.40;94056.06;5034625;28;20453;-87
2022/09/17 05:07:31;;;;;;;6.27;4.30;;;;;;;23.24;85.80;94035.84;5033677;28;20478;-85
2022/09/17 05:09:58;;;;;;;8.83;4.53;;;;;;;22.98;84.14;94031.66;5033660;28;20458;-87
2022/09/17 05:12:25;;;;;;;7.93;4.40;;;;;;;22.82;82.77;94026.94;5033832;28;20458;-86
2022/09/17 05:14:52;;;;;;;8.23;4.37;;;;;;;22.92;83.89;94029.09;5037388;28;20802;-86
2022/09/17 05:17:20;;;;;;;12.43;4.30;;;;;;;22.64;84.53;94013.59;5037544;28;20430;-86
2022/09/17 05:19:47;;;;;;;6.47;3.87;;;;;;;22.70;84.76;94024.19;5037569;28;20434;-86
2022/09/17 05:22:14;;;;;;;5.30;4.30;;;;;;;22.68;84.87;94018.25;5038178;28;20461;-90
2022/09/17 05:24:41;;;;;;;10.40;4.40;;;;;;;22.38;85.91;93999.50;5038463;28;20455;-90
2022/09/17 05:27:09;;;;;;;6.40;4.60;;;;;;;22.48;85.47;93998.97;5038261;28;20465;-90
2022/09/17 05:29:36;;;;;;;8.20;4.60;;;;;;;21.98;85.99;93988.44;5036655;28;20449;-93
2022/09/17 05:32:03;;;;;;;11.33;4.10;;;;;;;21.98;85.78;93992.97;5038072;28;20212;-91
2022/09/17 05:34:32;;;;;;;9.00;4.23;;;;;;;21.71;87.22;93995.06;5037691;28;20454;-91
2022/09/17 05:36:59;;;;;;;5.63;4.33;;;;;;;21.85;87.80;93999.22;5038550;28;20447;-89
2022/09/17 05:39:26;;;;;;;6.60;3.90;;;;;;;21.87;87.06;93992.63;5037870;28;20443;-89
2022/09/17 05:41:53;;;;;;;7.60;4.73;;;;;;;21.58;88.33;93996.81;5038053;28;20459;-89
2022/09/17 05:44:20;;;;;;;11.63;4.23;;;;;;;21.83;94.33;94012.00;5037995;28;20469;-90
2022/09/17 05:46:47;;;;;;;12.13;4.80;;;;;;;22.03;93.41;93996.59;5038314;28;20457;-92
2022/09/17 05:49:15;;;;;;;10.60;5.05;;;;;;;22.04;89.18;93992.09;5035989;28;20449;-89
2022/09/17 05:51:43;;;;;;;13.97;5.87;;;;;;;22.07;89.12;94003.16;5037313;28;20621;-87
2022/09/17 05:54:10;;;;;;;18.90;6.20;;;;;;;21.95;89.69;94004.88;5037078;28;20458;-90
2022/09/17 05:56:37;;;;;;;19.73;6.53;;;;;;;21.77;89.07;94000.34;5036342;28;20458;-89
2022/09/17 05:59:04;;;;;;;22.60;6.37;;;;;;;21.56;89.30;94001.56;5036707;28;20450;-87
2022/09/17 06:01:30;;;;;;;15.47;5.73;;;;;;;21.43;89.74;94004.34;5036223;28;20442;-88
2022/09/17 06:03:57;;;;;;;14.13;4.83;;;;;;;21.11;91.36;93995.53;5037564;28;20431;-90
2022/09/17 06:06:28;;;;;;;6.00;4.60;;;;;;;20.86;92.36;94011.50;5037153;28;20452;-87
2022/09/17 06:08:59;;;;;;;8.80;6.10;;;;;;;20.64;93.28;94007.53;5036791;28;20990;-89
2022/09/17 06:11:25;;;;;;;11.60;6.43;;;;;;;20.38;94.92;93997.78;5046252;28;20453;-89
2022/09/17 06:13:53;;;;;;;12.90;7.20;;;;;;;20.30;95.90;93996.16;5057516;28;20441;-88
2022/09/17 06:16:21;;;;;;;16.17;6.63;;;;;;;20.03;98.08;94007.94;5057681;28;20454;-85
2022/09/17 06:18:48;;;;;;;8.80;5.53;;;;;;;19.84;99.15;94011.47;5057217;28;20450;-88
2022/09/17 06:21:17;;;;;;;10.00;5.57;;;;;;;19.65;100.00;94018.44;5056904;28;20457;-88
2022/09/17 06:23:44;;;;;;;14.20;8.57;;;;;;;19.37;100.00;94021.28;5057204;28;20492;-88
2022/09/17 06:26:12;;;;;;;19.47;6.77;;;;;;;19.41;100.00;94034.00;5062489;28;20793;-85
2022/09/17 06:28:39;;;;;;;10.87;5.70;;;;;;;19.05;100.00;94037.03;5056645;28;21011;-88
2022/09/17 06:31:08;;;;;;;10.67;7.07;;;;;;;19.10;100.00;94041.78;5057184;28;20472;-88
2022/09/17 06:33:35;;;;;;;9.77;5.97;;;;;;;19.05;100.00;94066.28;5057076;28;20452;-89
2022/09/17 06:36:04;;;;;;;10.87;6.63;;;;;;;18.86;100.00;94085.69;5057081;28;20458;-87
2022/09/17 06:38:33;;;;;;;17.80;9.30;;;;;;;18.72;100.00;94079.50;5056711;28;20454;-87
2022/09/17 06:44:22;;;;;;;14.93;7.60;;;;;;;18.75;100.00;94094.22;5042620;28;20996;-89
2022/09/17 06:46:50;;;;;;;19.47;8.47;;;;;;;18.78;100.00;94107.13;5055450;28;20450;-88
2022/09/17 06:49:17;;;;;;;9.80;7.53;;;;;;;18.78;100.00;94096.47;5054671;28;20478;-88
2022/09/17 06:51:44;;;;;;;15.50;7.00;;;;;;;18.93;100.00;94089.19;5055257;28;20446;-89
2022/09/17 06:54:11;;;;;;;13.30;8.00;;;;;;;19.10;100.00;94071.03;5055070;28;20827;-88
2022/09/17 06:56:38;;;;;;;13.43;7.43;;;;;;;18.96;100.00;94058.72;5055671;28;20445;-88
2022/09/17 06:59:05;;;;;;;16.57;7.57;;;;;;;19.11;100.00;94060.19;5055389;28;20442;-88
2022/09/17 07:01:33;;;;;;;17.60;8.77;;;;;;;19.24;100.00;94062.03;5055128;28;20446;-88
2022/09/17 07:04:00;;;;;;;9.73;6.90;;;;;;;19.39;100.00;94057.34;5055256;28;20461;-88
2022/09/17 07:06:27;;;;;;;13.07;7.30;;;;;;;19.45;100.00;94050.38;5054969;28;20457;-89
2022/09/17 07:08:54;;;;;;;17.40;7.90;;;;;;;19.60;100.00;94032.38;5055040;28;20481;-89
2022/09/17 07:11:21;;;;;;;12.83;6.97;;;;;;;19.62;100.00;94006.38;5055051;28;20453;-88
2022/09/17 07:13:48;;;;;;;14.53;6.60;;;;;;;19.64;100.00;93990.19;5054862;28;20446;-88
2022/09/17 07:16:15;;;;;;;10.97;6.23;;;;;;;19.63;100.00;93986.72;5055034;28;20458;-88
2022/09/17 07:18:43;;;;;;;8.40;5.63;;;;;;;19.89;100.00;93977.03;5054940;28;20449;-86
2022/09/17 07:21:10;;;;;;;13.57;6.83;;;;;;;20.35;100.00;93983.03;5054990;28;20821;-88
2022/09/17 07:23:38;;;;;;;12.17;6.40;;;;;;;20.84;100.00;93991.41;5054783;28;20441;-89
2022/09/17 07:26:06;;;;;;;8.10;5.90;;;;;;;21.19;98.56;93984.59;5054979;28;20450;-89
2022/09/17 07:28:33;;;;;;;8.67;4.50;;;;;;;21.68;97.49;93987.47;5054545;28;20500;-89
2022/09/17 07:31:03;;;;;;;5.27;4.50;;;;;;;21.98;93.45;93988.44;5054249;28;20449;-88
2022/09/17 07:33:30;;;;;;;6.37;4.33;;;;;;;22.37;91.12;93967.66;5054953;28;20452;-88
2022/09/17 07:36:00;;;;;;;6.73;3.90;;;;;;;22.52;87.81;93989.44;5054051;28;20442;-88
2022/09/17 07:38:29;;;;;;;6.87;4.13;;;;;;;22.78;87.97;93990.97;5054654;28;20450;-89
2022/09/17 07:40:58;;;;;;;10.47;4.50;;;;;;;22.62;86.98;93971.03;5054927;28;20461;-89
2022/09/17 07:43:25;;;;;;;8.70;4.37;;;;;;;22.93;87.18;93985.25;5054528;28;20438;-88
2022/09/17 07:45:53;;;;;;;7.57;4.33;;;;;;;23.23;85.88;93991.38;5054271;28;20469;-89
2022/09/17 07:48:21;;;;;;;10.77;4.50;;;;;;;23.20;84.63;93975.78;5054647;28;20470;-88
2022/09/17 07:50:48;;;;;;;5.83;3.60;;;;;;;23.18;84.18;93959.13;5054275;28;20477;-89
2022/09/17 07:53:17;;;;;;;5.90;4.63;;;;;;;22.94;84.36;93979.66;5054647;28;20457;-88
2022/09/17 07:55:51;;;;;;;8.93;4.13;;;;;;;22.94;85.19;93966.28;5054486;28;20449;-89
2022/09/17 07:58:18;;;;;;;7.77;3.43;;;;;;;22.56;84.68;93959.38;5054370;28;20444;-90
2022/09/17 08:00:45;;;;;;;4.33;3.50;;;;;;;22.21;85.47;93953.84;5054375;28;20545;-86
2022/09/17 08:03:12;;;;;;;7.83;3.40;;;;;;;22.26;87.75;93950.50;5054265;28;20461;-89
2022/09/17 08:05:39;;;;;;;4.60;3.30;;;;;;;22.06;88.46;93937.38;5053813;28;20441;-89
2022/09/17 08:08:06;;;;;;;8.00;3.90;;;;;;;21.98;88.21;93960.91;5053796;28;20980;-89
2022/09/17 08:10:34;;;;;;;13.70;3.70;;;;;;;22.00;88.32;93962.31;5054260;28;20457;-88
2022/09/17 08:13:01;;;;;;;7.30;3.40;;;;;;;21.85;88.86;93946.63;5053596;28;20446;-89
2022/09/17 08:15:28;;;;;;;5.67;3.63;;;;;;;21.91;89.00;93939.56;5053954;28;20457;-88
2022/09/17 08:17:55;;;;;;;12.13;3.10;;;;;;;21.98;88.89;93935.00;5053394;28;20888;-88
2022/09/17 08:20:24;;;;;;;10.33;3.20;;;;;;;22.11;88.70;93940.19;5053629;28;20453;-88
2022/09/17 08:22:58;;;;;;;5.13;2.70;;;;;;;22.27;87.58;93940.66;5053498;28;20450;-88
2022/09/17 08:25:25;;;;;;;6.40;2.60;;;;;;;22.35;85.90;93922.44;5053595;28;20450;-87
2022/09/17 08:27:55;;;;;;;10.00;3.20;;;;;;;22.36;84.78;93942.78;5053615;28;20446;-88
2022/09/17 08:30:23;;;;;;;3.47;2.80;;;;;;;22.48;84.89;93937.47;5053778;28;20477;-88
2022/09/17 08:32:50;;;;;;;5.90;2.90;;;;;;;22.74;84.32;93937.09;5052852;28;20928;-88
2022/09/17 08:35:17;;;;;;;4.43;3.30;;;;;;;22.98;82.67;93935.34;5053414;28;20456;-89
2022/09/17 08:37:45;;;;;;;3.67;2.10;;;;;;;23.01;78.39;93934.06;5053101;28;20444;-88
2022/09/17 08:40:21;;;;;;;4.27;2.20;;;;;;;22.97;77.32;93935.56;5053695;28;20457;-88
2022/09/17 08:42:58;;;;;;;3.37;2.10;;;;;;;22.89;77.21;93941.25;5053425;28;20454;-88
2022/09/17 08:45:26;;;;;;;3.23;1.97;;;;;;;22.85;76.57;93947.06;5053934;28;20463;-87
2022/09/17 08:47:58;;;;;;;3.70;2.20;;;;;;;22.79;78.06;93925.72;5053265;28;20441;-88
2022/09/17 08:50:30;;;;;;;4.93;2.90;;;;;;;22.78;78.24;93945.47;5054065;28;20478;-86
2022/09/17 08:53:25;;;;;;;3.40;2.27;;;;;;;22.83;78.61;93938.44;5053644;28;20975;-89
2022/09/17 08:56:01;;;;;;;8.80;2.63;;;;;;;22.77;77.73;93939.31;5012151;28;20527;-88
2022/09/17 08:58:47;;;;;;;4.03;2.87;;;;;;;22.66;78.71;93924.06;5012306;28;20720;-90
2022/09/17 09:01:27;;;;;;;7.93;3.30;;;;;;;22.55;80.01;93923.00;5012430;28;20459;-86
2022/09/17 09:04:20;;;;;;;2.97;2.30;;;;;;;22.42;80.52;93927.69;5012311;28;20571;-88
2022/09/17 09:06:51;;;;;;;7.37;3.67;;;;;;;22.35;81.00;93938.47;5012241;28;20443;-88
2022/09/17 09:09:21;;;;;;;8.37;6.53;;;;;;;22.29;81.30;93947.41;5012754;28;20483;-91
2022/09/17 09:11:54;;;;;;;6.70;5.43;;;;;;;22.21;82.17;93948.50;4964581;28;21116;-90
2022/09/17 09:14:25;;;;;;;4.90;4.10;;;;;;;22.10;83.34;93943.09;5012240;28;20444;-84
2022/09/17 09:16:56;;;;;;;4.73;3.43;;;;;;;21.99;83.92;93936.63;4980514;28;20551;-91
2022/09/17 09:19:25;;;;;;;10.13;3.90;;;;;;;21.85;85.52;93946.63;5012343;28;20547;-89
2022/09/17 09:22:27;;;;;;;4.53;2.67;;;;;;;21.81;86.10;93947.31;5012338;28;20463;-88
2022/09/17 09:25:05;;;;;;;4.77;3.27;;;;;;;21.71;88.21;93958.50;5012923;28;20451;-87
2022/09/17 09:27:38;;;;;;;7.60;3.43;;;;;;;21.67;88.73;93956.47;5013129;28;20459;-90
2022/09/17 09:30:07;;;;;;;3.77;3.47;;;;;;;21.69;89.54;93975.78;5012662;28;20590;-93
2022/09/17 09:32:50;;;;;;;5.50;3.00;;;;;;;21.68;91.46;93982.94;5030938;28;20468;-92
2022/09/17 09:35:19;;;;;;;7.70;3.43;;;;;;;21.59;90.85;93990.44;5054333;28;20454;-92
2022/09/17 09:37:53;;;;;;;9.87;4.27;;;;;;;21.59;91.46;94006.47;5054200;28;20464;-93
2022/09/17 09:40:31;;;;;;;6.13;3.90;;;;;;;21.59;93.48;93986.94;5054235;28;20519;-90
2022/09/17 09:43:03;;;;;;;6.07;3.57;;;;;;;21.54;94.49;94000.16;5054425;28;20453;-90
2022/09/17 09:45:47;;;;;;;3.13;2.93;;;;;;;21.52;96.29;93996.88;5053807;28;20456;-89
2022/09/17 09:48:26;;;;;;;9.50;5.17;;;;;;;21.44;97.73;93999.84;5053464;28;20430;-88
2022/09/17 09:51:13;;;;;;;9.93;4.37;;;;;;;21.42;97.46;94001.91;5053245;28;20457;-88
2022/09/17 09:53:53;;;;;;;5.20;4.70;;;;;;;21.39;98.69;94015.66;5053422;28;20449;-88
2022/09/17 09:56:38;;;;;;;9.60;4.00;;;;;;;21.34;99.83;94021.66;5053652;28;20444;-89
2022/09/17 09:59:07;;;;;;;8.23;4.10;;;;;;;21.33;99.82;94025.34;5053586;28;20971;-88
2022/09/17 10:01:40;;;;;;;7.73;5.10;;;;;;;21.22;100.00;94013.50;5057119;28;20434;-87
2022/09/17 10:04:17;;;;;;;6.27;5.10;;;;;;;21.30;100.00;94039.13;5056393;28;20444;-86
2022/09/17 10:06:46;;;;;;;9.17;5.07;;;;;;;21.25;100.00;94014.97;5056582;28;20919;-85
2022/09/17 10:12:34;;;;;;;10.93;5.10;;;;;;;21.20;100.00;93974.75;5055657;28;20452;-87
2022/09/17 10:15:23;;;;;;;5.80;4.30;;;;;;;21.02;100.00;93936.28;5056589;28;20454;-87
2022/09/17 10:18:08;;;;;;;9.93;5.67;;;;;;;20.79;100.00;93938.69;5057449;28;20445;-87
2022/09/17 10:20:36;;;;;;;7.07;4.97;;;;;;;20.88;100.00;93941.94;5056548;28;20967;-87
2022/09/17 10:23:06;;;;;;;8.37;5.70;;;;;;;20.91;100.00;93925.50;5056487;28;20446;-89
2022/09/17 10:25:35;;;;;;;8.23;5.17;;;;;;;20.84;100.00;93922.91;5056447;28;20442;-88
2022/09/17 10:28:05;;;;;;;10.50;7.00;;;;;;;20.85;100.00;93908.53;5056394;28;20528;-87
2022/09/17 10:30:32;;;;;;;8.07;6.57;;;;;;;20.86;100.00;93896.00;5056382;28;20488;-88
2022/09/17 10:33:19;;;;;;;11.23;5.77;;;;;;;20.75;100.00;93913.50;5056188;28;20465;-87
2022/09/17 10:36:03;;;;;;;6.20;4.83;;;;;;;20.60;100.00;93923.69;5056525;28;20484;-86
2022/09/17 10:38:33;;;;;;;10.00;4.80;;;;;;;20.13;100.00;93904.44;5056630;28;20445;-88
2022/09/17 10:41:23;;;;;;;12.50;5.67;;;;;;;20.17;100.00;93894.97;5056660;28;20458;-87
2022/09/17 10:43:51;;;;;;;6.00;4.70;;;;;;;20.27;100.00;93876.69;4994948;28;20467;-88
2022/09/17 10:46:27;;;;;;;9.57;4.60;;;;;;;20.41;100.00;93869.47;4994988;28;21066;-87
2022/09/17 10:49:08;;;;;;;8.07;4.20;;;;;;;20.51;100.00;93848.47;4994644;28;20483;-87
2022/09/17 10:51:37;;;;;;;6.50;4.47;;;;;;;20.24;100.00;93815.84;4994912;28;20498;-88
2022/09/17 10:54:39;;;;;;;11.10;6.90;;;;;;;20.31;100.00;93811.28;4994835;28;20479;-87
2022/09/17 10:57:10;;;;;;;4.50;4.10;;;;;;;20.41;100.00;93806.31;4994913;28;20456;-87
2022/09/17 11:00:05;;;;;;;9.27;4.40;;;;;;;20.56;100.00;93802.53;4994501;28;20453;-87
2022/09/17 11:03:22;;;;;;;18.23;5.50;;;;;;;20.52;100.00;93811.97;4955417;29;20485;-86
2022/09/17 11:06:07;;;;;;;4.80;4.20;;;;;;;20.51;100.00;93815.66;4954503;28;20450;-87
2022/09/17 11:08:41;;;;;;;6.00;3.57;;;;;;;20.51;100.00;93810.34;4954545;29;20566;-87
2022/09/17 11:11:11;;;;;;;4.80;3.20;;;;;;;20.21;100.00;93826.91;4954208;28;20438;-87
2022/09/17 11:13:43;;;;;;;9.73;5.17;;;;;;;20.09;100.00;93829.47;4955522;29;20450;-87
2022/09/17 11:16:27;;;;;;;3.07;2.80;;;;;;;19.93;100.00;93848.59;4955759;28;20800;-87
2022/09/17 11:19:05;;;;;;;2.90;2.70;;;;;;;19.84;100.00;93841.88;4955796;29;20442;-88
2022/09/17 11:21:44;;;;;;;3.43;3.13;;;;;;;19.99;100.00;93877.06;5002720;28;20455;-88
2022/09/17 11:24:47;;;;;;;2.87;2.67;;;;;;;20.13;100.00;93839.69;5013451;28;20523;-87
2022/09/17 11:27:25;;;;;;;2.70;2.50;;;;;;;20.20;100.00;93851.91;5013091;28;20447;-87
2022/09/17 11:30:05;;;;;;;3.40;2.40;;;;;;;20.16;100.00;93869.38;5012655;28;20479;-86
2022/09/17 11:33:05;;;;;;;7.97;2.43;;;;;;;20.30;100.00;93880.78;5012613;28;20456;-87
2022/09/17 11:35:36;;;;;;;3.03;2.03;;;;;;;20.27;99.88;93867.88;5013123;28;20443;-87
2022/09/17 11:38:09;;;;;;;1.97;1.87;;;;;;;20.36;99.74;93856.75;5013290;28;20442;-87
2022/09/17 11:40:42;;;;;;;3.17;2.13;;;;;;;20.51;98.07;93860.97;5055520;28;20454;-88
2022/09/17 11:43:19;;;;;;;2.90;2.30;;;;;;;20.73;97.52;93891.59;5054812;28;20439;-87
2022/09/17 11:45:56;;;;;;;3.37;2.43;;;;;;;20.74;100.00;93885.22;5055459;28;20880;-87
2022/09/17 11:48:31;;;;;;;5.83;3.00;;;;;;;20.70;100.00;93884.03;5055081;28;20530;-87
2022/09/17 11:51:03;;;;;;;5.10;3.70;;;;;;;20.76;100.00;93887.66;5055312;28;20489;-87
2022/09/17 11:53:34;;;;;;;7.37;3.43;;;;;;;20.78;100.00;93875.75;5055047;28;20438;-87
2022/09/17 11:56:08;;;;;;;4.63;3.70;;;;;;;20.69;100.00;93880.53;5055365;28;20453;-87
2022/09/17 11:58:42;;;;;;;4.30;3.60;;;;;;;20.66;100.00;93861.50;5055108;28;20822;-87